Terminal Aerodrome Forecast
Issued by NWS Sterling, VA

Current Version | Previous Version | Graphics & Text | Print | Product List | Glossary On
Versions: 1 2 3 4 5 6 7 8 9 10 11 12 13 14 15 16 17 18 19 20 21 22 23 24 25 26 27 28 29 30 31
000
FTUS41 KLWX 232122 AAC
TAFIAD
TAF AMD
KIAD 232122Z 2321/2424 23005KT P6SM BKN060
      TEMPO 2321/2322 26015G30KT 4SM -TSRA BKN040CB
     FM240300 20004KT P6SM -SHRA VCTS BKN070CB
     FM240600 22004KT P6SM BKN070
     FM241200 28005KT P6SM SCT250=

USA.gov is the U.S. government's official web portal to all federal, state and local government web resources and services.